createdAt,value
2017-09-05T00:00:56.520Z,9.43
2017-09-05T00:03:23.911Z,9.83
2017-09-05T00:05:51.294Z,8.07
2017-09-05T00:11:24.379Z,11.07
2017-09-05T00:13:52.715Z,11.20
2017-09-05T00:19:28.439Z,10.57
2017-09-05T00:22:05.710Z,9.27
2017-09-05T00:24:33.110Z,10.17
2017-09-05T00:27:00.499Z,9.10
2017-09-05T00:29:27.898Z,7.43
2017-09-05T00:31:55.290Z,6.90
2017-09-05T00:34:22.678Z,7.63
2017-09-05T00:36:50.078Z,8.53
2017-09-05T00:39:17.459Z,7.13
2017-09-05T00:41:44.862Z,10.50
2017-09-05T00:44:12.257Z,9.63
2017-09-05T00:46:39.686Z,8.70
2017-09-05T00:49:07.070Z,7.67
2017-09-05T00:51:34.464Z,9.10
2017-09-05T00:54:01.846Z,8.50
2017-09-05T00:56:29.313Z,7.30
2017-09-05T01:01:30.470Z,8.53
2017-09-05T01:03:57.860Z,8.97
2017-09-05T01:06:25.255Z,7.80
2017-09-05T01:08:52.642Z,9.13
2017-09-05T01:11:20.034Z,9.87
2017-09-05T01:13:47.430Z,12.23
2017-09-05T01:16:14.906Z,11.33
2017-09-05T01:18:42.292Z,8.17
2017-09-05T01:21:09.713Z,8.97
2017-09-05T01:23:37.102Z,10.40
2017-09-05T01:26:04.520Z,7.60
2017-09-05T01:28:31.910Z,13.40
2017-09-05T01:30:59.306Z,10.60
2017-09-05T01:33:26.710Z,10.73
2017-09-05T01:35:54.142Z,10.50
2017-09-05T01:38:21.570Z,8.80
2017-09-05T01:40:48.954Z,8.30
2017-09-05T01:43:16.362Z,13.00
2017-09-05T01:45:43.742Z,9.13
2017-09-05T01:48:11.223Z,10.63
2017-09-05T01:50:38.614Z,10.27
2017-09-05T01:53:06.018Z,10.07
2017-09-05T01:55:33.412Z,9.23
2017-09-05T01:58:00.846Z,12.60
2017-09-05T02:00:28.234Z,9.37
2017-09-05T02:02:55.632Z,8.03
2017-09-05T02:05:23.106Z,8.87
2017-09-05T02:07:50.494Z,7.83
2017-09-05T02:10:17.922Z,9.00
2017-09-05T02:12:45.311Z,8.80
2017-09-05T02:15:12.704Z,10.67
2017-09-05T02:17:40.082Z,8.70
2017-09-05T02:20:07.542Z,8.73
2017-09-05T02:22:34.934Z,14.30
2017-09-05T02:25:02.331Z,10.67
2017-09-05T02:27:29.714Z,7.93
2017-09-05T02:29:57.111Z,8.67
2017-09-05T02:32:24.495Z,8.87
2017-09-05T02:34:51.907Z,8.50
2017-09-05T02:37:19.302Z,10.17
2017-09-05T02:39:46.742Z,10.70
2017-09-05T02:42:14.122Z,9.33
2017-09-05T02:44:41.519Z,9.77
2017-09-05T02:47:08.959Z,16.53
2017-09-05T02:49:36.414Z,11.50
2017-09-05T02:52:03.813Z,9.37
2017-09-05T02:54:31.204Z,9.93
2017-09-05T02:56:58.586Z,9.60
2017-09-05T02:59:25.997Z,10.03
2017-09-05T03:01:53.383Z,10.00
2017-09-05T03:04:20.779Z,12.20
2017-09-05T03:06:48.180Z,11.70
2017-09-05T03:09:15.650Z,10.93
2017-09-05T03:11:43.042Z,10.87
2017-09-05T03:14:10.466Z,13.00
2017-09-05T03:16:37.918Z,13.97
2017-09-05T03:19:05.324Z,17.97
2017-09-05T03:21:32.734Z,12.00
2017-09-05T03:24:00.186Z,11.67
2017-09-05T03:26:27.646Z,11.90
2017-09-05T03:28:55.040Z,10.73
2017-09-05T03:31:22.438Z,14.00
2017-09-05T03:33:49.830Z,12.70
2017-09-05T03:36:17.260Z,13.67
2017-09-05T03:38:44.723Z,14.80
2017-09-05T03:41:12.131Z,16.90
2017-09-05T03:43:39.517Z,16.23
2017-09-05T03:46:06.924Z,12.57
2017-09-05T03:48:34.342Z,14.40
2017-09-05T03:51:01.803Z,15.00
2017-09-05T03:53:29.203Z,15.30
2017-09-05T03:55:56.611Z,13.20
2017-09-05T03:58:24.075Z,12.73
2017-09-05T04:00:51.470Z,18.40
2017-09-05T04:03:18.872Z,15.77
2017-09-05T04:05:46.271Z,14.87
2017-09-05T04:08:13.674Z,18.37
2017-09-05T04:10:41.071Z,17.20
2017-09-05T04:13:08.498Z,22.47
2017-09-05T04:15:35.887Z,14.27
2017-09-05T04:18:03.293Z,14.10
2017-09-05T04:20:30.690Z,17.20
2017-09-05T04:22:58.090Z,16.90
2017-09-05T04:25:25.582Z,19.70
2017-09-05T04:27:52.975Z,16.00
2017-09-05T04:30:20.391Z,20.53
2017-09-05T04:32:47.795Z,20.33
2017-09-05T04:35:15.194Z,16.67
2017-09-05T04:37:42.603Z,15.93
2017-09-05T04:40:09.994Z,19.60
2017-09-05T04:42:37.382Z,15.87
2017-09-05T04:45:04.786Z,14.37
2017-09-05T04:47:32.178Z,16.10
2017-09-05T04:49:59.582Z,15.47
2017-09-05T04:52:26.978Z,12.90
2017-09-05T04:54:54.374Z,15.33
2017-09-05T04:57:21.766Z,15.00
2017-09-05T04:59:49.182Z,13.90
2017-09-05T05:02:16.602Z,17.53
2017-09-05T05:04:44.062Z,12.20
2017-09-05T05:07:11.458Z,14.23
2017-09-05T05:09:38.854Z,11.53
2017-09-05T05:12:06.330Z,9.67
2017-09-05T05:14:33.730Z,10.20
2017-09-05T05:17:01.136Z,8.23
2017-09-05T05:19:28.528Z,9.23
2017-09-05T05:21:55.916Z,8.30
2017-09-05T05:24:23.407Z,8.07
2017-09-05T05:26:50.794Z,10.27
2017-09-05T05:29:18.199Z,8.83
2017-09-05T05:31:45.591Z,8.40
2017-09-05T05:34:12.974Z,7.63
2017-09-05T05:36:40.378Z,8.57
2017-09-05T05:39:07.771Z,9.97
2017-09-05T05:41:35.194Z,10.33
2017-09-05T05:44:02.587Z,22.50
2017-09-05T05:46:30.007Z,16.60
2017-09-05T05:48:57.458Z,24.40
2017-09-05T05:51:24.858Z,11.27
2017-09-05T05:53:52.242Z,16.07
2017-09-05T05:56:19.726Z,12.07
2017-09-05T05:58:47.186Z,8.93
2017-09-05T06:01:14.586Z,11.40
2017-09-05T06:03:41.990Z,9.93
2017-09-05T06:06:09.387Z,9.40
2017-09-05T06:08:36.830Z,9.83
2017-09-05T06:11:04.231Z,11.83
2017-09-05T06:13:31.723Z,12.80
2017-09-05T06:15:59.126Z,10.00
2017-09-05T06:18:26.510Z,8.70
2017-09-05T06:20:53.918Z,11.03
2017-09-05T06:23:21.302Z,8.67
2017-09-05T06:25:48.698Z,10.03
2017-09-05T06:28:16.095Z,7.33
2017-09-05T06:30:43.477Z,8.60
2017-09-05T06:33:10.931Z,7.27
2017-09-05T06:35:38.414Z,9.50
2017-09-05T06:38:05.815Z,10.10
2017-09-05T06:40:33.198Z,7.93
2017-09-05T06:43:00.587Z,6.90
2017-09-05T06:45:27.974Z,8.03
2017-09-05T06:47:55.366Z,7.63
2017-09-05T06:50:22.855Z,6.70
2017-09-05T06:52:50.242Z,7.37
2017-09-05T06:55:17.662Z,7.60
2017-09-05T06:57:45.054Z,7.40
2017-09-05T07:00:12.467Z,9.10
2017-09-05T07:02:39.926Z,7.03
2017-09-05T07:05:07.383Z,7.00
2017-09-05T07:07:34.775Z,7.47
2017-09-05T07:10:02.203Z,9.33
2017-09-05T07:12:29.630Z,13.27
2017-09-05T07:14:57.115Z,11.90
2017-09-05T07:17:24.574Z,11.50
2017-09-05T07:19:51.966Z,10.93
2017-09-05T07:22:19.358Z,8.10
2017-09-05T07:24:46.737Z,8.13
2017-09-05T07:27:14.195Z,8.30
2017-09-05T07:29:41.652Z,8.27
2017-09-05T07:32:09.042Z,9.50
2017-09-05T07:34:36.464Z,9.13
2017-09-05T07:37:03.850Z,8.50
2017-09-05T07:39:31.238Z,7.73
2017-09-05T07:41:58.695Z,7.90
2017-09-05T07:44:26.191Z,9.43
2017-09-05T07:46:53.648Z,6.80
2017-09-05T07:49:21.411Z,9.37
2017-09-05T07:51:48.799Z,9.47
2017-09-05T07:54:16.190Z,7.07
2017-09-05T07:56:43.572Z,7.07
2017-09-05T07:59:10.962Z,8.07
2017-09-05T08:01:38.392Z,7.03
2017-09-05T08:04:05.838Z,7.80
2017-09-05T08:06:33.219Z,6.77
2017-09-05T08:09:00.610Z,7.60
2017-09-05T08:11:28.019Z,5.97
2017-09-05T08:13:55.478Z,6.40
2017-09-05T08:16:22.866Z,7.13
2017-09-05T08:18:50.287Z,8.83
2017-09-05T08:21:17.742Z,8.20
2017-09-05T08:23:45.195Z,7.87
2017-09-05T08:26:12.586Z,7.80
2017-09-05T08:28:40.002Z,9.13
2017-09-05T08:31:07.462Z,11.10
2017-09-05T08:33:34.845Z,8.17
2017-09-05T08:36:02.241Z,11.97
2017-09-05T08:38:29.623Z,9.10
2017-09-05T08:40:57.018Z,12.07
2017-09-05T08:43:24.402Z,10.27
2017-09-05T08:45:51.806Z,12.83
2017-09-05T08:48:19.254Z,11.90
2017-09-05T08:50:46.650Z,13.87
2017-09-05T08:53:14.075Z,11.33
2017-09-05T08:55:41.534Z,13.13
2017-09-05T08:58:08.918Z,11.60
2017-09-05T09:00:36.330Z,12.90
2017-09-05T09:03:03.718Z,15.60
2017-09-05T09:05:31.123Z,12.87
2017-09-05T09:07:58.508Z,8.67
2017-09-05T09:10:25.896Z,9.33
2017-09-05T09:12:53.291Z,10.20
2017-09-05T09:15:20.679Z,9.23
2017-09-05T09:17:48.070Z,6.43
2017-09-05T09:20:15.455Z,9.63
2017-09-05T09:22:42.943Z,10.90
2017-09-05T09:25:10.327Z,8.07
2017-09-05T09:27:37.727Z,8.80
2017-09-05T09:30:05.207Z,7.03
2017-09-05T09:32:32.597Z,8.20
2017-09-05T09:35:00.030Z,6.47
2017-09-05T09:37:27.483Z,7.27
2017-09-05T09:39:54.863Z,6.80
2017-09-05T09:42:22.260Z,6.33
2017-09-05T09:44:49.655Z,6.80
2017-09-05T09:47:17.102Z,7.33
2017-09-05T09:49:44.499Z,12.93
2017-09-05T09:52:11.890Z,6.63
2017-09-05T09:54:39.270Z,6.87
2017-09-05T09:57:06.654Z,8.33
2017-09-05T09:59:34.051Z,8.17
2017-09-05T10:02:01.442Z,10.93
2017-09-05T10:04:28.831Z,8.07
2017-09-05T10:06:56.224Z,8.63
2017-09-05T10:09:23.705Z,6.83
2017-09-05T10:11:51.091Z,7.23
2017-09-05T10:14:18.494Z,6.97
2017-09-05T10:16:45.879Z,7.50
2017-09-05T10:19:13.267Z,7.80
2017-09-05T10:21:40.654Z,6.77
2017-09-05T10:24:08.043Z,6.93
2017-09-05T10:26:35.447Z,9.07
2017-09-05T10:29:02.911Z,7.00
2017-09-05T10:31:30.303Z,8.03
2017-09-05T10:33:57.690Z,5.47
2017-09-05T10:36:25.079Z,5.10
2017-09-05T10:38:52.470Z,10.13
2017-09-05T10:43:54.927Z,7.50
2017-09-05T10:46:22.314Z,10.60
2017-09-05T10:48:49.700Z,5.80
2017-09-05T10:51:17.079Z,8.00
2017-09-05T10:53:44.471Z,7.20
2017-09-05T10:56:11.902Z,6.60
2017-09-05T10:58:39.287Z,4.90
2017-09-05T11:01:06.684Z,5.50
2017-09-05T11:03:34.062Z,6.10
2017-09-05T11:06:01.526Z,6.10
2017-09-05T11:08:28.919Z,5.03
2017-09-05T11:10:56.309Z,6.57
2017-09-05T11:13:23.696Z,5.77
2017-09-05T11:15:51.088Z,7.20
2017-09-05T11:18:18.503Z,6.97
2017-09-05T11:20:45.898Z,6.23
2017-09-05T11:23:13.319Z,4.83
2017-09-05T11:25:40.714Z,5.30
2017-09-05T11:28:08.101Z,5.60
2017-09-05T11:30:35.591Z,5.63
2017-09-05T11:33:02.978Z,5.40
2017-09-05T11:35:30.403Z,8.80
2017-09-05T11:37:57.829Z,6.27
2017-09-05T11:40:25.231Z,5.17
2017-09-05T11:42:52.623Z,5.93
2017-09-05T11:45:20.023Z,10.37
2017-09-05T11:47:47.487Z,5.37
2017-09-05T11:50:14.878Z,4.90
2017-09-05T11:52:42.299Z,4.47
2017-09-05T11:55:09.687Z,5.00
2017-09-05T11:57:37.078Z,5.17
2017-09-05T12:00:04.458Z,5.53
2017-09-05T12:02:31.850Z,7.40
2017-09-05T12:04:59.283Z,3.90
2017-09-05T12:07:26.676Z,3.17
2017-09-05T12:09:54.059Z,4.07
2017-09-05T12:12:21.446Z,4.27
2017-09-05T12:14:48.834Z,4.90
2017-09-05T12:17:16.258Z,4.30
2017-09-05T12:19:43.642Z,4.07
2017-09-05T12:22:11.038Z,3.33
2017-09-05T12:24:38.524Z,4.70
2017-09-05T12:27:05.957Z,4.93
2017-09-05T12:29:33.443Z,4.30
2017-09-05T12:32:00.830Z,3.50
2017-09-05T12:34:28.234Z,2.97
2017-09-05T12:36:55.628Z,4.43
2017-09-05T12:39:23.020Z,3.23
2017-09-05T12:41:50.403Z,3.67
2017-09-05T12:44:17.878Z,3.00
2017-09-05T12:46:45.267Z,4.43
2017-09-05T12:49:12.686Z,2.37
2017-09-05T12:51:40.146Z,2.63
2017-09-05T12:54:07.602Z,2.57
2017-09-05T12:56:34.986Z,3.03
2017-09-05T12:59:02.386Z,2.20
2017-09-05T13:01:29.775Z,2.90
2017-09-05T13:03:57.171Z,2.60
2017-09-05T13:06:24.554Z,2.17
2017-09-05T13:08:51.938Z,2.03
2017-09-05T13:11:19.406Z,3.00
2017-09-05T13:13:46.790Z,2.33
2017-09-05T13:16:14.179Z,2.07
2017-09-05T13:18:41.567Z,2.93
2017-09-05T13:21:08.963Z,3.00
2017-09-05T13:23:36.347Z,2.70
2017-09-05T13:26:03.740Z,5.10
2017-09-05T13:28:31.126Z,4.70
2017-09-05T13:30:58.520Z,2.50
2017-09-05T13:33:25.895Z,2.40
2017-09-05T13:35:53.290Z,2.13
2017-09-05T13:38:20.710Z,2.67
2017-09-05T13:40:48.109Z,3.80
2017-09-05T13:43:15.526Z,2.40
2017-09-05T13:45:42.979Z,3.40
2017-09-05T13:48:10.434Z,2.83
2017-09-05T13:50:37.895Z,4.60
2017-09-05T13:53:05.278Z,5.37
2017-09-05T13:55:32.675Z,3.10
2017-09-05T13:58:00.062Z,4.87
2017-09-05T14:00:27.523Z,2.60
2017-09-05T14:02:54.914Z,3.10
2017-09-05T14:05:22.303Z,3.40
2017-09-05T14:07:49.689Z,7.00
2017-09-05T14:10:17.206Z,3.83
2017-09-05T14:12:44.702Z,3.87
2017-09-05T14:15:12.087Z,4.90
2017-09-05T14:17:39.518Z,7.30
2017-09-05T14:20:06.899Z,3.43
2017-09-05T14:22:34.299Z,3.90
2017-09-05T14:25:01.688Z,4.40
2017-09-05T14:27:29.142Z,6.23
2017-09-05T14:29:56.611Z,5.87
2017-09-05T14:32:24.003Z,4.27
2017-09-05T14:34:51.419Z,5.17
2017-09-05T14:37:18.806Z,4.73
2017-09-05T14:39:46.230Z,9.90
2017-09-05T14:42:13.629Z,5.23
2017-09-05T14:44:41.010Z,10.70
2017-09-05T14:47:08.495Z,5.53
2017-09-05T14:49:35.974Z,11.63
2017-09-05T14:52:03.333Z,7.30
2017-09-05T14:54:30.763Z,5.37
2017-09-05T14:56:58.142Z,5.07
2017-09-05T14:59:25.530Z,8.20
2017-09-05T15:01:52.919Z,5.63
2017-09-05T15:04:20.310Z,4.90
2017-09-05T15:06:47.751Z,5.30
2017-09-05T15:09:15.207Z,3.70
2017-09-05T15:11:42.666Z,7.37
2017-09-05T15:14:10.053Z,4.60
2017-09-05T15:16:37.442Z,4.23
2017-09-05T15:19:04.835Z,6.70
2017-09-05T15:21:32.218Z,4.50
2017-09-05T15:23:59.613Z,4.57
2017-09-05T15:26:27.094Z,3.87
2017-09-05T15:28:54.507Z,2.97
2017-09-05T15:31:21.899Z,4.20
2017-09-05T15:33:49.366Z,5.70
2017-09-05T15:36:16.763Z,4.53
2017-09-05T15:38:44.170Z,4.60
2017-09-05T15:41:11.566Z,5.43
2017-09-05T15:43:38.944Z,5.07
2017-09-05T15:46:06.342Z,4.30
2017-09-05T15:48:33.722Z,5.37
2017-09-05T15:51:01.118Z,7.90
2017-09-05T15:53:28.510Z,4.23
2017-09-05T15:55:55.982Z,5.27
2017-09-05T15:58:24.335Z,6.27
2017-09-05T16:00:51.826Z,5.47
2017-09-05T16:03:19.213Z,7.70
2017-09-05T16:05:46.600Z,7.23
2017-09-05T16:08:13.979Z,8.03
2017-09-05T16:10:41.386Z,5.40
2017-09-05T16:13:08.770Z,4.00
2017-09-05T16:15:36.252Z,5.37
2017-09-05T16:18:03.634Z,5.40
2017-09-05T16:20:31.066Z,4.30
2017-09-05T16:22:58.515Z,4.70
2017-09-05T16:25:25.906Z,5.90
2017-09-05T16:27:53.296Z,6.70
2017-09-05T16:30:20.790Z,6.25
2017-09-05T16:32:48.174Z,5.53
2017-09-05T16:35:15.567Z,7.73
2017-09-05T16:37:43.061Z,7.53
2017-09-05T16:40:10.519Z,7.97
2017-09-05T16:42:37.927Z,6.60
2017-09-05T16:45:05.314Z,5.97
2017-09-05T16:47:32.783Z,6.17
2017-09-05T16:50:00.174Z,6.50
2017-09-05T16:52:27.594Z,8.60
2017-09-05T16:54:55.071Z,5.10
2017-09-05T16:57:22.511Z,5.10
2017-09-05T16:59:49.972Z,9.60
2017-09-05T17:02:17.372Z,4.80
2017-09-05T17:04:44.765Z,7.10
2017-09-05T17:07:12.158Z,4.40
2017-09-05T17:09:39.538Z,6.17
2017-09-05T17:12:06.926Z,5.47
2017-09-05T17:14:34.316Z,4.60
2017-09-05T17:17:01.703Z,6.10
2017-09-05T17:19:29.116Z,4.17
2017-09-05T17:21:56.498Z,8.23
2017-09-05T17:24:23.893Z,5.17
2017-09-05T17:26:51.407Z,4.57
2017-09-05T17:29:18.837Z,5.90
2017-09-05T17:31:46.298Z,5.97
2017-09-05T17:34:13.690Z,6.63
2017-09-05T17:36:41.115Z,6.10
2017-09-05T17:39:08.566Z,5.10
2017-09-05T17:41:35.943Z,5.50
2017-09-05T17:44:03.383Z,6.87
2017-09-05T17:46:30.787Z,5.73
2017-09-05T17:48:58.174Z,8.53
2017-09-05T17:51:25.564Z,7.63
2017-09-05T17:53:52.955Z,5.20
2017-09-05T17:56:20.339Z,7.73
2017-09-05T17:58:47.739Z,6.07
2017-09-05T18:01:15.117Z,4.93
2017-09-05T18:03:42.631Z,5.30
2017-09-05T18:06:10.018Z,6.83
2017-09-05T18:08:37.408Z,5.30
2017-09-05T18:11:04.895Z,7.10
2017-09-05T18:13:32.275Z,4.63
2017-09-05T18:15:59.682Z,4.57
2017-09-05T18:18:27.166Z,5.27
2017-09-05T18:20:54.634Z,5.87
2017-09-05T18:23:22.006Z,5.50
2017-09-05T18:25:49.431Z,5.27
2017-09-05T18:28:16.843Z,7.80
2017-09-05T18:30:44.250Z,5.53
2017-09-05T18:33:11.706Z,7.23
2017-09-05T18:35:39.099Z,11.00
2017-09-05T18:38:06.519Z,6.60
2017-09-05T18:40:33.929Z,7.20
2017-09-05T18:43:01.310Z,6.77
2017-09-05T18:45:28.782Z,7.77
2017-09-05T18:47:56.182Z,13.03
2017-09-05T18:50:23.574Z,9.47
2017-09-05T18:52:50.961Z,8.43
2017-09-05T18:55:18.371Z,6.90
2017-09-05T18:57:45.862Z,13.37
2017-09-05T19:00:13.318Z,5.70
2017-09-05T19:02:40.774Z,8.37
2017-09-05T19:05:08.163Z,8.43
2017-09-05T19:07:35.558Z,6.77
2017-09-05T19:10:03.047Z,11.00
2017-09-05T19:12:30.447Z,5.63
2017-09-05T19:14:57.826Z,7.43
2017-09-05T19:17:26.115Z,5.50
2017-09-05T19:19:53.510Z,19.40
2017-09-05T19:22:20.899Z,8.03
2017-09-05T19:24:48.284Z,6.20
2017-09-05T19:27:15.679Z,7.60
2017-09-05T19:29:43.986Z,5.67
2017-09-05T19:32:11.495Z,5.40
2017-09-05T19:34:38.946Z,4.50
2017-09-05T19:37:06.379Z,7.27
2017-09-05T19:39:33.862Z,4.90
2017-09-05T19:42:01.259Z,10.73
2017-09-05T19:44:28.806Z,6.60
2017-09-05T19:46:56.191Z,5.80
2017-09-05T19:49:23.596Z,6.53
2017-09-05T19:51:50.982Z,6.47
2017-09-05T19:54:18.371Z,5.80
2017-09-05T19:56:45.756Z,5.20
2017-09-05T19:59:13.146Z,6.27
2017-09-05T20:01:40.895Z,6.87
2017-09-05T20:04:08.297Z,10.97
2017-09-05T20:06:35.739Z,6.47
2017-09-05T20:09:03.127Z,6.67
2017-09-05T20:11:30.516Z,6.37
2017-09-05T20:13:57.915Z,5.77
2017-09-05T20:16:25.314Z,7.13
2017-09-05T20:18:52.762Z,7.63
2017-09-05T20:21:20.146Z,6.03
2017-09-05T20:23:47.544Z,9.47
2017-09-05T20:26:14.925Z,7.63
2017-09-05T20:28:42.320Z,6.53
2017-09-05T20:31:09.711Z,6.70
2017-09-05T20:33:37.130Z,7.47
2017-09-05T20:36:04.510Z,7.60
2017-09-05T20:38:31.908Z,9.47
2017-09-05T20:40:59.318Z,6.23
2017-09-05T20:43:26.867Z,7.93
2017-09-05T20:45:54.278Z,12.80
2017-09-05T20:48:21.782Z,9.17
2017-09-05T20:50:49.168Z,8.37
2017-09-05T20:53:16.650Z,7.80
2017-09-05T20:55:44.034Z,8.33
2017-09-05T20:58:11.423Z,9.20
2017-09-05T21:00:38.918Z,8.90
2017-09-05T21:03:06.312Z,10.03
2017-09-05T21:05:33.709Z,7.80
2017-09-05T21:08:01.090Z,6.80
2017-09-05T21:10:28.481Z,6.77
2017-09-05T21:12:55.863Z,9.13
2017-09-05T21:15:23.254Z,6.23
2017-09-05T21:17:50.634Z,8.20
2017-09-05T21:20:18.032Z,10.70
2017-09-05T21:22:45.415Z,8.87
2017-09-05T21:25:12.797Z,7.00
2017-09-05T21:27:40.183Z,7.70
2017-09-05T21:30:07.574Z,7.60
2017-09-05T21:32:35.063Z,9.30
2017-09-05T21:35:02.499Z,6.10
2017-09-05T21:37:29.960Z,5.77
2017-09-05T21:39:57.355Z,6.17
2017-09-05T21:42:24.747Z,7.70
2017-09-05T21:44:52.134Z,6.40
2017-09-05T21:47:19.580Z,6.60
2017-09-05T21:49:46.970Z,10.93
2017-09-05T21:52:14.359Z,7.43
2017-09-05T21:54:41.751Z,6.83
2017-09-05T21:57:09.210Z,6.67
2017-09-05T21:59:36.662Z,6.47
2017-09-05T22:02:04.062Z,6.40
2017-09-05T22:04:31.473Z,6.73
2017-09-05T22:06:58.932Z,5.57
2017-09-05T22:09:26.381Z,7.03
2017-09-05T22:11:53.777Z,6.17
2017-09-05T22:14:26.825Z,5.80
2017-09-05T22:16:54.226Z,6.73
2017-09-05T22:22:19.695Z,6.70
2017-09-05T22:24:52.672Z,6.70
2017-09-05T22:27:25.724Z,6.90
2017-09-05T22:29:53.102Z,6.07
2017-09-05T22:32:20.486Z,7.40
2017-09-05T22:34:47.960Z,9.80
2017-09-05T22:37:15.422Z,6.20
2017-09-05T22:39:42.814Z,6.83
2017-09-05T22:42:10.200Z,5.53
2017-09-05T22:44:37.687Z,9.90
2017-09-05T22:47:05.073Z,5.90
2017-09-05T22:49:32.471Z,5.90
2017-09-05T22:51:59.950Z,8.47
2017-09-05T22:54:27.342Z,7.30
2017-09-05T22:56:54.766Z,6.80
2017-09-05T22:59:22.151Z,5.60
2017-09-05T23:01:49.547Z,5.93
2017-09-05T23:04:17.037Z,7.67
2017-09-05T23:06:44.427Z,6.80
2017-09-05T23:09:11.843Z,6.97
2017-09-05T23:11:39.229Z,6.67
2017-09-05T23:14:06.657Z,8.13
2017-09-05T23:16:34.050Z,6.40
2017-09-05T23:19:01.465Z,5.80
2017-09-05T23:21:28.858Z,5.43
2017-09-05T23:23:56.247Z,7.80
2017-09-05T23:26:23.654Z,5.87
2017-09-05T23:28:51.043Z,6.63
2017-09-05T23:31:18.438Z,10.77
2017-09-05T23:33:45.899Z,7.20
2017-09-05T23:36:13.354Z,9.20
2017-09-05T23:38:40.738Z,7.67
2017-09-05T23:41:08.136Z,7.47
2017-09-05T23:43:35.634Z,7.40
2017-09-05T23:46:03.030Z,5.40
2017-09-05T23:48:30.443Z,7.80
2017-09-05T23:50:57.838Z,7.20
2017-09-05T23:53:25.246Z,6.93
2017-09-05T23:55:52.708Z,7.00
2017-09-05T23:58:20.098Z,5.83
